Time;durP1;ratioP1;P1;durP2;ratioP2;P2;SDS_P1;SDS_P2;PMS_P1;PMS_P2;Temp;Humidity;BMP_temperature;BMP_pressure;BME280_temperature;BME280_humidity;BME280_pressure;Samples;Min_cycle;Max_cycle;Signal;HPM_P1;HPM_P2
2021/12/05 00:20:19;;;;;;;35.10;19.00;;;;;;;-0.87;100.00;98379.59;1691607;83;21142;-72
2021/12/05 00:22:33;;;;;;;33.90;19.45;;;;;;;-0.92;100.00;98379.72;1692972;83;21169;-72
2021/12/05 00:25:03;;;;;;;32.67;19.95;;;;;;;-0.94;100.00;98389.15;1695060;84;21540;-71
2021/12/05 00:27:39;;;;;;;36.05;21.27;;;;;;;-0.96;100.00;98393.02;1704226;79;21169;-72
2021/12/05 00:30:26;;;;;;;36.90;19.37;;;;;;;-0.97;100.00;98394.34;1765858;79;20969;-72
2021/12/05 00:35:58;;;;;;;39.48;24.63;;;;;;;-1.03;100.00;98384.23;1726012;82;21187;-72
2021/12/05 00:59:53;;;;;;;43.25;22.42;;;;;;;-1.28;100.00;98398.00;1768660;79;21072;-72
2021/12/05 01:12:45;;;;;;;42.70;22.48;;;;;;;-1.28;100.00;98407.80;1772719;79;21481;-72
2021/12/05 01:15:19;;;;;;;44.53;24.37;;;;;;;-1.24;100.00;98411.97;1766804;79;21474;-71
2021/12/05 01:18:05;;;;;;;40.83;21.20;;;;;;;-1.24;100.00;98414.53;1769512;79;20979;-72
2021/12/05 01:20:35;;;;;;;31.73;19.37;;;;;;;-1.22;100.00;98414.52;1767389;79;21093;-72
2021/12/05 01:23:10;;;;;;;34.30;19.02;;;;;;;-1.25;100.00;98407.73;1768746;79;20951;-72
2021/12/05 01:25:44;;;;;;;34.75;19.30;;;;;;;-1.29;100.00;98408.66;1773139;79;20996;-72
2021/12/05 01:28:25;;;;;;;37.28;19.57;;;;;;;-1.36;100.00;98410.95;1733637;82;21116;-72
2021/12/05 01:30:48;;;;;;;38.00;19.62;;;;;;;-1.42;100.00;98418.77;1732201;81;20994;-72
2021/12/05 01:33:17;;;;;;;35.17;20.37;;;;;;;-1.47;100.00;98428.24;1767343;79;21123;-72
2021/12/05 01:35:51;;;;;;;34.63;20.55;;;;;;;-1.49;100.00;98422.30;1759089;80;20971;-72
2021/12/05 01:38:20;;;;;;;33.58;19.30;;;;;;;-1.48;100.00;98430.41;1762099;80;21440;-72
2021/12/05 01:40:53;;;;;;;38.38;20.43;;;;;;;-1.46;100.00;98428.64;1756489;80;21102;-71
2021/12/05 02:15:16;;;;;;;39.58;20.17;;;;;;;-1.76;100.00;98436.05;1663320;85;21115;-72
2021/12/05 02:32:15;;;;;;;37.63;19.15;;;;;;;-1.87;100.00;98448.19;1755899;79;21001;-72
2021/12/05 02:37:19;;;;;;;34.20;19.42;;;;;;;-1.93;100.00;98449.55;1746219;81;21090;-72
2021/12/05 02:39:51;;;;;;;34.05;19.90;;;;;;;-1.95;100.00;98456.42;1765189;79;20999;-72
2021/12/05 02:42:21;;;;;;;32.35;19.70;;;;;;;-1.96;100.00;98445.77;1748430;81;20920;-72
2021/12/05 02:44:46;;;;;;;33.73;19.57;;;;;;;-1.96;100.00;98445.77;1760962;79;21703;-72
2021/12/05 02:47:18;;;;;;;30.85;19.00;;;;;;;-1.95;100.00;98450.87;1754705;81;21141;-72
2021/12/05 02:49:49;;;;;;;32.80;19.32;;;;;;;-1.93;100.00;98446.98;1766862;79;21082;-72
2021/12/05 02:52:25;;;;;;;32.33;19.57;;;;;;;-1.91;100.00;98456.77;1778815;79;20894;-72
2021/12/05 02:54:54;;;;;;;30.82;18.05;;;;;;;-1.91;100.00;98459.33;1760433;79;21076;-72
2021/12/05 02:57:48;;;;;;;27.22;17.85;;;;;;;-1.90;100.00;98459.75;1756159;79;21049;-72
2021/12/05 03:00:06;;;;;;;27.42;16.93;;;;;;;-1.88;100.00;98464.38;1714783;81;21104;-72
2021/12/05 03:02:38;;;;;;;29.55;18.27;;;;;;;-1.86;100.00;98471.16;1748682;81;21007;-72
2021/12/05 03:04:59;;;;;;;30.40;19.23;;;;;;;-1.84;100.00;98468.59;1765435;79;21278;-72
2021/12/05 03:07:37;;;;;;;32.48;19.85;;;;;;;-1.85;100.00;98470.73;1766155;79;20907;-72
2021/12/05 03:09:55;;;;;;;31.27;19.07;;;;;;;-1.87;100.00;98473.77;1772333;79;21159;-71
2021/12/05 03:12:22;;;;;;;24.87;15.43;;;;;;;-1.87;100.00;98467.38;1759138;79;21074;-70
2021/12/05 03:14:50;;;;;;;24.90;14.73;;;;;;;-1.89;100.00;98463.98;1777559;79;20931;-71
2021/12/05 03:17:18;;;;;;;33.18;15.30;;;;;;;-1.97;100.00;98452.59;1748180;81;21696;-70
2021/12/05 03:19:44;;;;;;;27.30;16.45;;;;;;;-2.03;100.00;98453.55;1776816;79;20973;-70
2021/12/05 03:22:11;;;;;;;32.03;18.53;;;;;;;-2.08;100.00;98457.89;1753361;81;20989;-70
2021/12/05 03:24:38;;;;;;;31.33;17.87;;;;;;;-2.11;100.00;98460.50;1768329;79;21581;-70
2021/12/05 03:27:05;;;;;;;31.07;16.87;;;;;;;-2.08;100.00;98465.56;1743408;81;21247;-71
2021/12/05 03:29:32;;;;;;;26.25;15.78;;;;;;;-2.05;100.00;98462.95;1779822;79;21008;-70
2021/12/05 03:31:59;;;;;;;31.17;17.02;;;;;;;-2.06;100.00;98460.00;1772471;79;21731;-71
2021/12/05 03:34:27;;;;;;;23.47;15.28;;;;;;;-2.11;100.00;98451.98;1747157;81;26562;-70
2021/12/05 03:36:57;;;;;;;26.60;16.25;;;;;;;-2.16;100.00;98457.17;1788771;79;21254;-71
2021/12/05 03:39:25;;;;;;;25.12;16.07;;;;;;;-2.19;100.00;98454.66;1755267;81;20941;-71
2021/12/05 03:41:53;;;;;;;27.13;16.27;;;;;;;-2.20;100.00;98455.55;1748681;81;20899;-71
2021/12/05 03:44:24;;;;;;;30.92;16.90;;;;;;;-2.22;100.00;98467.50;1777286;79;21659;-71
2021/12/05 03:46:53;;;;;;;27.52;16.95;;;;;;;-2.26;100.00;98471.83;1762888;79;21041;-71
2021/12/05 03:49:22;;;;;;;30.50;17.82;;;;;;;-2.28;100.00;98481.67;1754338;80;21080;-71
2021/12/05 03:51:54;;;;;;;32.70;19.00;;;;;;;-2.28;100.00;98476.55;1770003;79;20950;-71
2021/12/05 03:54:21;;;;;;;32.53;17.48;;;;;;;-2.28;100.00;98470.16;1788659;79;21025;-71
2021/12/05 03:56:49;;;;;;;35.10;20.10;;;;;;;-2.26;100.00;98474.83;1778938;79;21676;-71
2021/12/05 03:59:17;;;;;;;35.08;19.73;;;;;;;-2.22;100.00;98480.73;1782626;79;20954;-71
2021/12/05 04:01:47;;;;;;;37.80;20.52;;;;;;;-2.21;100.00;98482.00;1776932;79;21253;-71
2021/12/05 04:04:14;;;;;;;38.90;22.27;;;;;;;-2.19;100.00;98481.52;1780863;79;20974;-71
2021/12/05 04:06:41;;;;;;;37.05;21.70;;;;;;;-2.16;100.00;98490.86;1749188;80;21120;-71
2021/12/05 04:09:11;;;;;;;40.23;23.90;;;;;;;-2.14;100.00;98491.24;1757562;79;20961;-71
2021/12/05 04:11:44;;;;;;;42.80;23.73;;;;;;;-2.13;100.00;98495.51;1777340;79;21173;-71
2021/12/05 04:14:12;;;;;;;43.87;24.70;;;;;;;-2.11;100.00;98503.98;1770167;79;21948;-71
2021/12/05 04:16:40;;;;;;;44.70;24.72;;;;;;;-2.07;100.00;98503.08;1769364;79;21050;-71
2021/12/05 04:19:08;;;;;;;44.58;25.48;;;;;;;-2.05;100.00;98496.20;1747785;79;21708;-71
2021/12/05 04:21:38;;;;;;;50.17;29.23;;;;;;;-2.00;100.00;98502.97;1770867;79;20997;-71
2021/12/05 04:24:07;;;;;;;52.80;28.92;;;;;;;-1.95;100.00;98494.36;1783308;79;21075;-72
2021/12/05 04:26:35;;;;;;;54.00;29.23;;;;;;;-1.89;100.00;98493.41;1770740;79;21547;-72
2021/12/05 04:29:04;;;;;;;48.85;28.05;;;;;;;-1.86;100.00;98490.80;1770213;79;26729;-72
2021/12/05 04:31:31;;;;;;;48.45;26.97;;;;;;;-1.84;100.00;98494.18;1743505;81;21014;-72
2021/12/05 04:33:58;;;;;;;54.30;28.25;;;;;;;-1.82;100.00;98497.53;1767032;79;21008;-72
2021/12/05 04:36:24;;;;;;;52.27;27.33;;;;;;;-1.81;100.00;98496.69;1772811;79;21815;-72
2021/12/05 04:38:51;;;;;;;40.17;22.05;;;;;;;-1.80;100.00;98498.36;1753052;80;21513;-71
2021/12/05 04:41:18;;;;;;;51.02;25.43;;;;;;;-1.80;100.00;98512.44;1765296;79;20956;-71
2021/12/05 04:43:46;;;;;;;53.30;27.77;;;;;;;-1.81;100.00;98512.03;1769570;79;21112;-70
2021/12/05 04:46:17;;;;;;;54.00;28.70;;;;;;;-1.81;100.00;98514.59;1774737;79;21493;-71
2021/12/05 04:48:49;;;;;;;55.98;28.98;;;;;;;-1.79;100.00;98517.98;1767398;79;20999;-71
2021/12/05 04:51:18;;;;;;;51.53;28.47;;;;;;;-1.76;100.00;98517.05;1753006;80;21032;-72
2021/12/05 04:53:45;;;;;;;63.35;29.72;;;;;;;-1.71;100.00;98526.38;1750290;79;21167;-72
2021/12/05 04:56:12;;;;;;;51.70;28.87;;;;;;;-1.67;100.00;98529.72;1751062;81;21070;-71
2021/12/05 04:58:39;;;;;;;48.87;28.02;;;;;;;-1.64;100.00;98533.06;1755968;80;20981;-71
2021/12/05 05:01:07;;;;;;;48.95;27.25;;;;;;;-1.60;100.00;98534.72;1749770;79;21005;-71
2021/12/05 05:03:36;;;;;;;44.73;25.45;;;;;;;-1.60;100.00;98533.44;1753274;80;21910;-70
2021/12/05 05:06:11;;;;;;;39.08;22.27;;;;;;;-1.64;100.00;98533.06;1746914;81;20919;-71
2021/12/05 05:08:34;;;;;;;43.42;25.00;;;;;;;-1.69;100.00;98529.73;1778790;79;20938;-71
2021/12/05 05:11:06;;;;;;;47.62;27.55;;;;;;;-1.74;100.00;98536.64;1773800;79;20993;-71
2021/12/05 05:13:33;;;;;;;51.60;30.30;;;;;;;-1.75;100.00;98538.80;1752653;80;20994;-71
2021/12/05 05:16:02;;;;;;;;;;;;;;;-1.74;100.00;98544.31;1759440;80;21100;-72
2021/12/05 05:18:37;;;;;;;46.83;27.13;;;;;;;-1.71;100.00;98546.85;1758757;80;20094;-72
2021/12/05 05:21:08;;;;;;;44.90;26.12;;;;;;;-1.73;100.00;98548.58;1759664;79;22230;-72
2021/12/05 05:23:40;;;;;;;49.42;26.40;;;;;;;-1.72;100.00;98541.30;1753780;80;21077;-71
2021/12/05 05:28:55;;;;;;;49.03;27.30;;;;;;;-1.71;100.00;98557.09;1734528;81;21157;-69
2021/12/05 05:47:08;;;;;;;43.68;27.30;;;;;;;-1.95;100.00;98574.09;1766400;80;21047;-68
2021/12/05 05:52:18;;;;;;;50.75;27.82;;;;;;;-1.99;100.00;98583.95;1755524;81;21040;-69
2021/12/05 05:54:48;;;;;;;46.75;28.17;;;;;;;-2.00;100.00;98586.11;1758481;79;21946;-69
2021/12/05 06:00:00;;;;;;;47.35;28.95;;;;;;;-2.04;100.00;98597.67;1774201;79;21593;-70
2021/12/05 06:05:05;;;;;;;53.17;30.23;;;;;;;-2.00;100.00;98592.06;1774069;79;20946;-70
2021/12/05 06:07:33;;;;;;;;;;;;;;;-1.99;100.00;98596.74;1763299;79;21561;-70
2021/12/05 06:09:59;;;;;;;57.13;31.85;;;;;;;-2.00;100.00;98602.73;1782402;79;20098;-71
2021/12/05 06:12:26;;;;;;;52.80;30.92;;;;;;;-2.00;100.00;98602.73;1771980;80;20986;-71
2021/12/05 06:14:53;;;;;;;54.08;30.52;;;;;;;-2.00;100.00;98604.02;1773715;79;21013;-71
2021/12/05 06:17:19;;;;;;;61.40;34.65;;;;;;;-1.97;100.00;98607.80;1771534;79;21026;-70
2021/12/05 06:19:46;;;;;;;59.03;34.45;;;;;;;-1.94;100.00;98606.48;1779694;79;21198;-70
2021/12/05 06:22:12;;;;;;;59.83;34.85;;;;;;;-1.95;100.00;98606.92;1779811;79;20989;-70
2021/12/05 06:24:39;;;;;;;59.95;34.05;;;;;;;-1.95;100.00;98613.75;1781816;79;21481;-70
2021/12/05 06:27:06;;;;;;;61.40;35.15;;;;;;;-1.91;100.00;98633.30;1782842;79;20981;-70
2021/12/05 06:29:39;;;;;;;62.45;34.55;;;;;;;-1.88;100.00;98636.64;1774022;79;20958;-70
2021/12/05 06:32:31;;;;;;;55.98;34.75;;;;;;;-1.84;100.00;98646.42;1757390;79;21143;-69
2021/12/05 06:37:44;;;;;;;54.18;35.17;;;;;;;-1.81;100.00;98645.09;1750034;81;21001;-70
2021/12/05 06:42:53;;;;;;;55.58;33.80;;;;;;;-1.84;100.00;98642.59;1744766;81;21033;-70
2021/12/05 06:48:00;;;;;;;59.15;33.98;;;;;;;-1.82;100.00;98649.38;1760554;80;21085;-70
2021/12/05 06:50:27;;;;;;;54.77;32.23;;;;;;;-1.82;100.00;98647.22;1766257;80;20977;-70
2021/12/05 06:52:54;;;;;;;52.67;34.20;;;;;;;-1.82;100.00;98651.06;1761322;80;20999;-70
2021/12/05 06:55:21;;;;;;;56.70;34.88;;;;;;;-1.86;100.00;98651.98;1749795;81;21008;-70
2021/12/05 06:57:48;;;;;;;60.55;35.70;;;;;;;-1.88;100.00;98658.83;1756241;81;21540;-70
2021/12/05 07:00:23;;;;;;;58.65;35.17;;;;;;;-1.91;100.00;98659.72;1717729;81;21123;-70
2021/12/05 07:02:50;;;;;;;55.20;34.33;;;;;;;-1.96;100.00;98662.80;1748968;81;21116;-70
2021/12/05 07:07:55;;;;;;;53.78;35.63;;;;;;;-2.03;100.00;98670.97;1734698;81;21585;-70
2021/12/05 07:10:22;;;;;;;55.00;35.97;;;;;;;-2.06;100.00;98668.45;1747121;81;21139;-69
2021/12/05 07:14:05;;;;;;;56.63;35.83;;;;;;;-2.06;100.00;98676.13;1745282;81;21159;-69
2021/12/05 07:15:39;;;;;;;56.37;34.25;;;;;;;-2.07;100.00;98677.00;1730935;81;21010;-69
2021/12/05 07:25:54;;;;;;;50.80;31.77;;;;;;;-2.09;100.00;98700.47;1749071;80;21021;-69
2021/12/05 07:42:10;;;;;;;60.92;35.13;;;;;;;-2.07;100.00;98705.14;1766300;80;20988;-69
2021/12/05 07:44:33;;;;;;;59.33;36.65;;;;;;;-2.10;100.00;98715.41;1768457;80;20976;-69
2021/12/05 07:47:00;;;;;;;54.83;35.57;;;;;;;-2.08;100.00;98720.05;1770656;81;21132;-70
2021/12/05 07:49:26;;;;;;;58.63;35.90;;;;;;;-2.04;100.00;98725.56;1743730;81;21094;-68
2021/12/05 07:51:53;;;;;;;67.35;41.25;;;;;;;-2.00;100.00;98719.13;1759786;80;21496;-70
2021/12/05 07:54:35;;;;;;;85.32;50.05;;;;;;;-1.99;100.00;98720.81;1761723;80;21067;-69
2021/12/05 07:57:17;;;;;;;88.55;51.45;;;;;;;-1.90;100.00;98729.67;1763925;79;21081;-70
2021/12/05 08:15:58;;;;;;;66.87;40.33;;;;;;;-1.94;100.00;98751.02;1680764;83;21209;-69
2021/12/05 08:18:10;;;;;;;60.75;39.48;;;;;;;-1.90;100.00;98754.81;1699234;83;21110;-71
2021/12/05 08:20:41;;;;;;;60.10;39.67;;;;;;;-1.88;100.00;98750.94;1699606;83;21021;-71
2021/12/05 08:23:12;;;;;;;63.65;37.83;;;;;;;-1.83;100.00;98755.12;1701925;82;21638;-71
2021/12/05 08:25:40;;;;;;;65.75;38.95;;;;;;;-1.78;100.00;98751.69;1698816;83;21157;-71
2021/12/05 08:30:50;;;;;;;62.17;38.28;;;;;;;-1.72;100.00;98762.67;1697890;83;21002;-70
2021/12/05 09:29:45;;;;;;;59.27;35.55;;;;;;;-1.08;100.00;98775.44;1781177;79;21004;-72
2021/12/05 09:40:28;;;;;;;48.20;29.15;;;;;;;-1.04;100.00;98783.03;1769392;80;20950;-71
2021/12/05 10:02:36;;;;;;;30.70;20.50;;;;;;;-0.72;100.00;98781.70;1748198;81;21107;-72
2021/12/05 10:07:39;;;;;;;33.60;22.10;;;;;;;-0.64;100.00;98789.23;1693333;80;21193;-72
2021/12/05 10:13:04;;;;;;;38.63;23.90;;;;;;;-0.55;100.00;98776.28;1777340;79;21654;-71
2021/12/05 10:26:44;;;;;;;51.92;30.85;;;;;;;-0.50;100.00;98774.48;1756788;79;22502;-69
2021/12/05 10:34:56;;;;;;;45.17;28.77;;;;;;;-0.41;100.00;98778.16;1755297;81;21344;-70
2021/12/05 10:37:17;;;;;;;38.08;26.55;;;;;;;-0.41;100.00;98779.44;1757558;80;21008;-73
2021/12/05 10:39:43;;;;;;;36.70;26.02;;;;;;;-0.41;100.00;98779.44;1757604;80;21559;-72
2021/12/05 10:42:42;;;;;;;39.87;28.23;;;;;;;-0.33;100.00;98778.87;1764850;80;21326;-72
2021/12/05 10:45:22;;;;;;;33.15;22.75;;;;;;;-0.17;100.00;98783.70;1764468;80;21300;-71
2021/12/05 10:47:52;;;;;;;31.23;21.23;;;;;;;0.03;100.00;98785.88;1762156;80;21032;-72
2021/12/05 10:50:49;;;;;;;32.95;21.62;;;;;;;0.12;100.00;98782.70;1733394;81;21069;-72
2021/12/05 10:53:53;;;;;;;31.62;21.45;;;;;;;0.18;100.00;98780.45;1716939;81;21026;-71
2021/12/05 10:56:27;;;;;;;35.78;21.77;;;;;;;0.23;100.00;98781.66;1764196;79;22373;-71
2021/12/05 10:59:02;;;;;;;28.83;20.77;;;;;;;0.22;100.00;98780.78;1784341;79;21514;-72
2021/12/05 11:01:49;;;;;;;29.85;20.57;;;;;;;0.24;100.00;98770.50;1755903;80;21068;-72
2021/12/05 11:04:29;;;;;;;41.70;24.45;;;;;;;0.25;100.00;98779.88;1777002;79;21879;-71
2021/12/05 11:07:12;;;;;;;47.73;28.00;;;;;;;0.24;100.00;98776.92;1756733;81;21402;-74
2021/12/05 11:09:48;;;;;;;47.03;30.43;;;;;;;0.18;100.00;98780.01;1754786;81;21144;-71
2021/12/05 11:12:26;;;;;;;41.80;27.73;;;;;;;0.14;100.00;98782.25;1751919;79;21059;-71
2021/12/05 11:14:58;;;;;;;39.33;25.77;;;;;;;0.23;100.00;98779.93;1779455;79;20966;-72
2021/12/05 11:17:29;;;;;;;32.58;23.25;;;;;;;0.34;100.00;98772.01;1753940;80;20970;-72
2021/12/05 11:20:02;;;;;;;27.80;19.37;;;;;;;0.49;100.00;98781.94;1744150;81;21021;-72
2021/12/05 11:22:45;;;;;;;53.60;29.90;;;;;;;0.61;100.00;98788.08;1757235;80;21071;-73
2021/12/05 11:25:20;;;;;;;41.30;25.62;;;;;;;0.64;100.00;98784.19;1752218;80;21032;-71
2021/12/05 11:28:55;;;;;;;40.58;24.50;;;;;;;0.73;100.00;98784.84;1764104;79;22701;-70
2021/12/05 11:31:32;;;;;;;34.40;22.65;;;;;;;0.71;100.00;98784.05;1747577;80;21131;-72
2021/12/05 11:33:59;;;;;;;34.38;22.95;;;;;;;0.76;100.00;98795.91;1739992;81;21140;-71
2021/12/05 11:36:34;;;;;;;35.53;23.30;;;;;;;0.83;100.00;98796.61;1738717;80;21084;-71
2021/12/05 11:39:23;;;;;;;33.83;22.05;;;;;;;0.87;100.00;98805.95;1746350;81;21062;-72
2021/12/05 11:41:51;;;;;;;49.58;30.50;;;;;;;0.89;100.00;98814.45;1740924;80;21041;-72
2021/12/05 11:44:23;;;;;;;54.38;41.83;;;;;;;0.93;100.00;98810.95;1739738;80;22304;-72
2021/12/05 11:46:50;;;;;;;39.30;25.05;;;;;;;0.96;100.00;98810.88;1733155;80;21073;-72
2021/12/05 11:49:22;;;;;;;37.03;23.42;;;;;;;1.03;100.00;98817.55;1747022;80;21469;-72
2021/12/05 11:51:56;;;;;;;38.17;24.90;;;;;;;1.01;100.00;98828.33;1736473;80;21025;-72
2021/12/05 11:54:30;;;;;;;35.48;21.27;;;;;;;0.94;100.00;98825.48;1717152;81;21124;-72
2021/12/05 11:57:21;;;;;;;36.17;23.38;;;;;;;0.86;100.00;98831.23;1736535;81;21092;-71
2021/12/05 12:00:00;;;;;;;36.33;25.25;;;;;;;0.83;100.00;98826.16;1732708;80;21109;-72
2021/12/05 12:02:35;;;;;;;37.05;24.40;;;;;;;0.78;100.00;98827.53;1733308;80;21654;-72
2021/12/05 12:05:14;;;;;;;34.23;22.20;;;;;;;0.73;100.00;98820.80;1747798;80;21092;-72
2021/12/05 12:08:00;;;;;;;31.77;21.10;;;;;;;0.65;100.00;98826.97;1733734;80;21028;-72
2021/12/05 12:10:33;;;;;;;34.27;20.82;;;;;;;0.60;100.00;98833.92;1736131;81;21555;-71
2021/12/05 12:13:11;;;;;;;33.33;21.48;;;;;;;0.54;100.00;98839.20;1742165;81;22038;-70
2021/12/05 12:15:42;;;;;;;27.25;17.95;;;;;;;0.50;100.00;98847.83;1732418;81;21080;-71
2021/12/05 12:18:24;;;;;;;29.10;18.32;;;;;;;0.47;100.00;98844.48;1736838;81;20993;-71
2021/12/05 12:20:47;;;;;;;25.60;17.37;;;;;;;0.45;100.00;98847.10;1735406;81;21069;-71
2021/12/05 12:23:18;;;;;;;27.20;19.45;;;;;;;0.44;100.00;98855.66;1735281;80;21056;-72
2021/12/05 12:25:50;;;;;;;28.90;21.10;;;;;;;0.39;100.00;98852.34;1733156;81;21693;-71
2021/12/05 12:28:19;;;;;;;29.52;20.92;;;;;;;0.35;100.00;98850.72;1741081;80;21390;-71
2021/12/05 12:30:55;;;;;;;34.18;21.62;;;;;;;0.36;100.00;98860.11;1739718;81;21148;-72
2021/12/05 12:33:35;;;;;;;35.17;21.87;;;;;;;0.38;100.00;98855.80;1733879;81;21039;-72
2021/12/05 12:36:04;;;;;;;32.30;21.57;;;;;;;0.38;100.00;98853.23;1730337;81;22359;-72
2021/12/05 12:38:36;;;;;;;32.13;22.17;;;;;;;0.40;100.00;98854.05;1736674;81;21156;-72
2021/12/05 12:41:19;;;;;;;34.23;21.37;;;;;;;0.40;100.00;98859.19;1732307;81;20969;-72
2021/12/05 12:43:58;;;;;;;34.03;22.50;;;;;;;0.45;100.00;98856.09;1739180;80;20990;-72
2021/12/05 12:46:48;;;;;;;34.88;23.00;;;;;;;0.46;100.00;98852.64;1742520;81;21033;-71
2021/12/05 12:49:21;;;;;;;36.10;22.32;;;;;;;0.51;100.00;98858.53;1737381;80;21057;-70
2021/12/05 12:52:11;;;;;;;36.33;21.75;;;;;;;0.57;100.00;98851.98;1739519;80;22605;-71
2021/12/05 12:54:52;;;;;;;31.30;21.40;;;;;;;0.62;100.00;98859.16;1736462;80;21131;-70
2021/12/05 12:57:28;;;;;;;33.15;20.92;;;;;;;0.64;100.00;98863.83;1734824;80;21128;-70
2021/12/05 13:10:29;;;;;;;38.50;23.07;;;;;;;0.54;100.00;98872.59;1692168;83;22552;-71
2021/12/05 13:13:09;;;;;;;33.83;22.27;;;;;;;0.52;100.00;98864.06;1689642;83;21119;-71
2021/12/05 13:15:59;;;;;;;31.48;20.68;;;;;;;0.52;100.00;98864.06;1700343;83;21008;-72
2021/12/05 13:18:31;;;;;;;32.25;21.82;;;;;;;0.50;100.00;98858.11;1693195;84;21032;-70
2021/12/05 13:21:03;;;;;;;30.40;23.07;;;;;;;0.48;100.00;98871.85;1687055;83;21096;-71
2021/12/05 13:23:46;;;;;;;35.20;24.10;;;;;;;0.46;100.00;98877.03;1693962;83;22502;-70
2021/12/05 13:26:42;;;;;;;35.03;24.20;;;;;;;0.51;100.00;98875.23;1842366;75;23251;-71
2021/12/05 13:29:25;;;;;;;31.93;22.05;;;;;;;0.48;100.00;98883.41;1824013;78;21079;-71
2021/12/05 13:32:06;;;;;;;33.40;22.30;;;;;;;0.45;100.00;98883.06;1818163;78;21005;-70
2021/12/05 13:34:49;;;;;;;31.10;22.60;;;;;;;0.40;100.00;98881.86;1804366;78;21385;-71
2021/12/05 13:37:30;;;;;;;36.77;22.98;;;;;;;0.39;100.00;98880.59;1824351;78;21091;-71
2021/12/05 13:40:26;;;;;;;31.97;22.00;;;;;;;0.40;100.00;98888.72;1808082;78;21543;-71
2021/12/05 13:43:07;;;;;;;31.30;22.17;;;;;;;0.39;100.00;98890.86;1819871;78;20942;-72
2021/12/05 13:45:42;;;;;;;33.33;20.82;;;;;;;0.32;100.00;98893.16;1819208;78;21097;-72
2021/12/05 13:48:15;;;;;;;38.75;22.93;;;;;;;0.29;100.00;98900.47;1818942;78;20945;-71
2021/12/05 13:50:50;;;;;;;34.78;23.90;;;;;;;0.25;100.00;98896.25;1817498;78;20991;-71
2021/12/05 13:53:27;;;;;;;34.73;24.10;;;;;;;0.21;100.00;98900.61;1816269;78;21614;-72
2021/12/05 13:56:03;;;;;;;36.93;24.23;;;;;;;0.22;100.00;98902.73;1820869;78;21000;-72
2021/12/05 13:58:40;;;;;;;36.15;23.30;;;;;;;0.23;100.00;98907.45;1821838;78;21102;-72
2021/12/05 14:01:29;;;;;;;34.35;23.90;;;;;;;0.19;100.00;98910.05;1765999;79;21050;-72
2021/12/05 14:04:10;;;;;;;34.83;21.97;;;;;;;0.20;100.00;98919.47;1773327;79;21596;-72
2021/12/05 14:07:00;;;;;;;31.90;22.17;;;;;;;0.17;100.00;98927.23;1787704;79;21071;-72
2021/12/05 14:09:43;;;;;;;31.40;22.37;;;;;;;0.15;100.00;98928.13;1777444;79;20965;-82
2021/12/05 14:12:23;;;;;;;30.90;22.55;;;;;;;0.14;100.00;98927.28;1772905;79;22182;-81
2021/12/05 14:15:00;;;;;;;28.67;21.50;;;;;;;0.13;100.00;98928.14;1756889;80;21020;-83
2021/12/05 14:17:45;;;;;;;31.35;22.15;;;;;;;0.10;100.00;98929.92;1732490;80;21515;-81
2021/12/05 14:20:17;;;;;;;32.00;21.10;;;;;;;0.09;100.00;98938.06;1789926;79;20973;-80
2021/12/05 14:22:47;;;;;;;29.18;20.75;;;;;;;0.07;100.00;98938.96;1783340;78;21290;-82
2021/12/05 14:25:22;;;;;;;28.65;19.48;;;;;;;0.06;100.00;98945.82;1769293;79;21928;-80
2021/12/05 14:27:55;;;;;;;31.27;20.27;;;;;;;0.05;100.00;98950.52;1783034;79;21602;-81
2021/12/05 14:30:26;;;;;;;28.77;19.32;;;;;;;0.07;100.00;98950.07;1764184;79;21101;-80
2021/12/05 14:32:58;;;;;;;31.73;20.45;;;;;;;0.08;100.00;98953.03;1777706;79;21537;-81
2021/12/05 14:35:30;;;;;;;29.37;20.17;;;;;;;0.07;100.00;98955.64;1781934;79;21045;-77
2021/12/05 14:37:58;;;;;;;29.77;19.90;;;;;;;0.08;100.00;98956.89;1771351;79;21088;-78
2021/12/05 14:40:40;;;;;;;26.10;18.98;;;;;;;0.07;100.00;98959.05;1782745;79;21076;-77
2021/12/05 14:43:11;;;;;;;30.25;19.62;;;;;;;0.04;100.00;98961.67;1761208;79;21068;-75
2021/12/05 14:45:41;;;;;;;28.55;18.55;;;;;;;0.02;100.00;98969.83;1782336;79;21692;-77
2021/12/05 14:48:14;;;;;;;28.55;19.17;;;;;;;0.03;100.00;98964.25;1775204;79;21011;-77
2021/12/05 14:50:44;;;;;;;29.80;18.92;;;;;;;0.03;100.00;98962.56;1757284;81;21938;-74
2021/12/05 14:53:17;;;;;;;29.98;19.07;;;;;;;0.03;100.00;98962.56;1766777;79;20969;-77
2021/12/05 14:55:47;;;;;;;27.65;18.15;;;;;;;0.04;100.00;98969.38;1747938;81;21009;-78
2021/12/05 14:58:17;;;;;;;28.07;18.35;;;;;;;0.05;100.00;98981.33;1752761;81;21032;-77
2021/12/05 15:00:50;;;;;;;28.07;19.77;;;;;;;0.02;100.00;98973.68;1771262;79;21677;-78
2021/12/05 15:03:25;;;;;;;31.33;19.60;;;;;;;0.00;100.00;98976.73;1790841;79;21047;-77
2021/12/05 15:05:56;;;;;;;27.87;18.80;;;;;;;0.01;100.00;98977.13;1768606;79;21020;-77
2021/12/05 15:08:28;;;;;;;25.20;18.10;;;;;;;0.01;100.00;98972.00;1771434;79;21040;-76
2021/12/05 15:11:00;;;;;;;29.95;19.42;;;;;;;0.02;100.00;98978.81;1762425;80;21403;-75
2021/12/05 15:13:28;;;;;;;27.95;18.48;;;;;;;0.04;100.00;98979.64;1751209;79;20943;-77
2021/12/05 15:15:55;;;;;;;26.17;17.65;;;;;;;0.05;100.00;98990.31;1696762;80;21092;-77
2021/12/05 15:18:34;;;;;;;25.70;18.12;;;;;;;0.04;100.00;98989.06;1736050;80;21058;-78
2021/12/05 15:21:01;;;;;;;28.92;18.95;;;;;;;0.04;100.00;98988.63;1778768;78;21128;-77
2021/12/05 15:23:33;;;;;;;25.90;17.77;;;;;;;0.07;100.00;98987.29;1767251;79;20985;-76
2021/12/05 15:26:03;;;;;;;29.55;18.73;;;;;;;0.11;100.00;98992.80;1717644;82;21053;-77
2021/12/05 15:28:30;;;;;;;27.02;18.55;;;;;;;0.11;100.00;98992.80;1729555;81;21976;-77
2021/12/05 15:30:57;;;;;;;28.57;18.67;;;;;;;0.14;100.00;98999.16;1760593;79;21176;-78
2021/12/05 15:33:26;;;;;;;26.65;19.12;;;;;;;0.15;100.00;98995.71;1756704;79;21009;-78
2021/12/05 15:35:56;;;;;;;30.88;18.95;;;;;;;0.16;100.00;98997.39;1780127;79;21086;-77
2021/12/05 15:38:28;;;;;;;29.75;20.92;;;;;;;0.19;100.00;99004.20;1778002;79;21606;-77
2021/12/05 15:41:03;;;;;;;30.65;20.02;;;;;;;0.21;100.00;99000.73;1766367;79;21120;-75
2021/12/05 15:43:34;;;;;;;28.77;20.00;;;;;;;0.24;100.00;99009.27;1763200;79;21065;-77
2021/12/05 15:46:07;;;;;;;30.02;20.05;;;;;;;0.25;100.00;99003.25;1773061;79;21001;-76
2021/12/05 15:48:36;;;;;;;28.90;20.27;;;;;;;0.24;100.00;99007.55;1749435;79;21076;-76
2021/12/05 15:51:09;;;;;;;31.27;20.30;;;;;;;0.24;100.00;99009.27;1739725;79;21041;-76
2021/12/05 15:53:38;;;;;;;28.67;19.37;;;;;;;0.23;100.00;99012.72;1781498;78;21249;-77
2021/12/05 15:56:16;;;;;;;28.10;18.50;;;;;;;0.20;100.00;99014.45;1769817;79;21109;-79
2021/12/05 15:59:00;;;;;;;34.98;20.77;;;;;;;0.16;100.00;99010.23;1773087;79;21034;-77
2021/12/05 16:01:24;;;;;;;27.75;18.95;;;;;;;0.13;100.00;99010.28;1784246;79;21577;-77
2021/12/05 16:03:58;;;;;;;29.67;20.62;;;;;;;0.08;100.00;99006.09;1753930;79;21524;-77
2021/12/05 16:06:49;;;;;;;31.52;19.77;;;;;;;0.03;100.00;99015.17;1776145;79;21091;-77
2021/12/05 16:09:21;;;;;;;27.52;18.77;;;;;;;0.01;100.00;99015.63;1739449;81;21104;-78
2021/12/05 16:11:51;;;;;;;28.95;18.30;;;;;;;0.01;100.00;99015.63;1735965;81;21680;-77
2021/12/05 16:14:35;;;;;;;26.95;18.85;;;;;;;0.00;100.00;99019.08;1741966;81;21635;-78
2021/12/05 16:17:24;;;;;;;30.77;19.00;;;;;;;-0.01;100.00;99025.06;1740233;81;21710;-78
2021/12/05 16:20:14;;;;;;;34.43;18.87;;;;;;;0.03;100.00;99024.16;1716006;82;21100;-75
2021/12/05 16:23:06;;;;;;;25.68;18.27;;;;;;;0.07;100.00;99023.23;1739120;81;21033;-75
2021/12/05 16:25:37;;;;;;;28.30;18.95;;;;;;;0.12;100.00;99024.00;1744367;81;21034;-75
2021/12/05 16:28:06;;;;;;;29.82;21.10;;;;;;;0.15;100.00;99023.95;1764400;79;21019;-75
2021/12/05 16:30:44;;;;;;;32.83;20.62;;;;;;;0.15;100.00;99027.80;1708505;82;21082;-77
2021/12/05 16:33:15;;;;;;;31.30;20.48;;;;;;;0.17;100.00;99032.48;1736889;81;22342;-77
2021/12/05 16:35:49;;;;;;;28.98;20.68;;;;;;;0.20;100.00;99029.86;1715959;81;21015;-77
2021/12/05 16:38:44;;;;;;;32.38;20.85;;;;;;;0.23;100.00;99026.84;1704688;82;21100;-77